UCT Elwood — V7HW9 — position and weather

sailwx.info

Track history (hours):
 
Tides and Currents Weather Stations Pressure Air Temp Water Temp Dewpoint Dewpoint Depression Visibility Wind Speed Wind Dir Waves Ship Positions

UCT Elwood

Last reported at 2017-Jun-22 18:29 UTC. Time now 2017-Jun-23 05:16 UTC.
Position N 26°46' W 121°02'.

Type: Ship (hazmat cat B). MMSI: 538002324.

Date/timePositionNaut miles runAvg speedWind from/ knotsBaromVisibWave heightAir tempDewpointWater temp
2017-Jun-22 18:29N 26°46' W 121°02'2813.2
2017-Jun-22 16:22N 27°10' W 121°17'613.4
2017-Jun-22 15:55N 27°15' W 121°20'1813.3
2017-Jun-22 14:34N 27°31' W 121°30'113.5
2017-Jun-22 14:29N 27°32' W 121°30'1413.1
2017-Jun-22 13:23N 27°45' W 121°38'513.1
2017-Jun-22 13:00N 27°49' W 121°41'613.0
2017-Jun-22 12:30N 27°55' W 121°45'612.9
2017-Jun-22 12:01N 28°00' W 121°48'713.2
2017-Jun-22 11:31N 28°06' W 121°52'713.2
2017-Jun-22 11:00N 28°12' W 121°56'713.2
2017-Jun-22 10:29N 28°18' W 121°59'613.1
2017-Jun-22 10:00N 28°24' W 122°03'713.1
2017-Jun-22 09:30N 28°29' W 122°06'713.1
2017-Jun-22 08:59N 28°35' W 122°10'613.0
2017-Jun-22 08:30N 28°41' W 122°13'712.9
2017-Jun-22 07:59N 28°47' W 122°17'713.0
2017-Jun-22 07:29N 28°53' W 122°20'613.1
2017-Jun-22 07:00N 28°58' W 122°24'612.9
2017-Jun-22 06:31N 29°04' W 122°27'713.2
2017-Jun-22 05:57N 29°10' W 122°31'613.2
2017-Jun-22 05:30N 29°15' W 122°35'613.2
2017-Jun-22 05:00N 29°21' W 122°38'713.1
2017-Jun-22 04:26N 29°28' W 122°42'613.0
2017-Jun-22 04:00N 29°32' W 122°45'1012.9
2017-Jun-22 03:13N 29°41' W 122°51'812.9
2017-Jun-22 02:36N 29°48' W 122°55'112.6
2017-Jun-22 02:30N 29°49' W 122°56'712.9
2017-Jun-22 02:00N 29°55' W 122°59'712.9
2017-Jun-22 01:30N 30°01' W 123°03'713.0
2017-Jun-22 00:55N 30°07' W 123°07'513.1
2017-Jun-22 00:30N 30°12' W 123°10'613.1
2017-Jun-22 00:01N 30°18' W 123°14'713.0
2017-Jun-21 23:30N 30°24' W 123°17'613.1
2017-Jun-21 23:00N 30°29' W 123°21'613.1
2017-Jun-21 22:31N 30°35' W 123°24'612.9
2017-Jun-21 22:00N 30°41' W 123°28'713.0
2017-Jun-21 21:30N 30°46' W 123°32'612.9
2017-Jun-21 21:00N 30°52' W 123°35'713.0
2017-Jun-21 20:30N 30°58' W 123°39'612.9
2017-Jun-21 20:00N 31°03' W 123°43'713.0
2017-Jun-21 19:28N 31°10' W 123°47'613.0
2017-Jun-21 19:00N 31°15' W 123°50'612.9
2017-Jun-21 18:30N 31°21' W 123°53'712.8
2017-Jun-21 18:00N 31°26' W 123°57'612.9
2017-Jun-21 17:30N 31°32' W 124°01'613.0
2017-Jun-21 17:00N 31°38' W 124°04'4613.0
2017-Jun-21 13:28N 32°18' W 124°31'712.8
2017-Jun-21 12:55N 32°24' W 124°35'512.8
2017-Jun-21 12:30N 32°28' W 124°38'613.0
2017-Jun-21 12:00N 32°34' W 124°42'713.0
2017-Jun-21 11:26N 32°41' W 124°45'613.0
2017-Jun-21 11:00N 32°46' W 124°48'713.2
2017-Jun-21 10:28N 32°52' W 124°52'613.2
2017-Jun-21 10:00N 32°57' W 124°56'712.9
2017-Jun-21 09:30N 33°03' W 124°60'712.8
2017-Jun-21 08:58N 33°09' W 125°03'612.8
2017-Jun-21 08:29N 33°15' W 125°07'712.9
2017-Jun-21 07:57N 33°21' W 125°11'613.0
2017-Jun-21 07:30N 33°26' W 125°14'713.1
2017-Jun-21 07:00N 33°31' W 125°18'713.2
2017-Jun-21 06:30N 33°37' W 125°22'912.9
2017-Jun-21 05:46N 33°46' W 125°27'312.9
2017-Jun-21 05:30N 33°49' W 125°29'1612.7
2017-Jun-21 04:15N 34°03' W 125°39'2612.7
2017-Jun-21 02:13N 34°25' W 125°53'412.7
2017-Jun-21 01:55N 34°29' W 125°56'512.8
2017-Jun-21 01:30N 34°33' W 125°59'612.7
2017-Jun-21 01:00N 34°39' W 126°03'612.7
2017-Jun-21 00:30N 34°44' W 126°06'612.7
2017-Jun-21 00:00N 34°50' W 126°10'612.7
2017-Jun-20 23:30N 34°55' W 126°14'713.0
2017-Jun-20 23:00N 35°01' W 126°18'16713.2
2017-Jun-20 10:25N 37°28' W 127°56'42311.8
2017-Jun-18 22:32N 44°31' W 127°43'013.6
2017-Jun-18 22:30N 44°31' W 127°42'812.7
2017-Jun-18 21:52N 44°36' W 127°33'1012.8
2017-Jun-18 21:07N 44°41' W 127°22'113.2
2017-Jun-18 21:00N 44°42' W 127°20'1012.8
2017-Jun-18 20:11N 44°48' W 127°08'312.9
2017-Jun-18 20:00N 44°49' W 127°05'612.8
2017-Jun-18 19:30N 44°53' W 126°58'712.8
2017-Jun-18 18:59N 44°57' W 126°50'812.8
2017-Jun-18 18:23N 45°01' W 126°41'512.7
2017-Jun-18 17:59N 45°04' W 126°36'612.8
2017-Jun-18 17:30N 45°08' W 126°28'1112.9
2017-Jun-18 16:38N 45°14' W 126°15'212.9
2017-Jun-18 16:28N 45°15' W 126°13'712.6
2017-Jun-18 15:54N 45°19' W 126°04'512.5
2017-Jun-18 15:30N 45°22' W 125°58'912.7
2017-Jun-18 14:46N 45°28' W 125°48'1112.6
2017-Jun-18 13:52N 45°34' W 125°35'512.5
2017-Jun-18 13:30N 45°37' W 125°29'612.6
2017-Jun-18 13:00N 45°40' W 125°22'612.4
2017-Jun-18 12:30N 45°44' W 125°14'612.5
2017-Jun-18 12:00N 45°47' W 125°07'612.6
2017-Jun-18 11:30N 45°51' W 124°60'612.5
2017-Jun-18 11:01N 45°54' W 124°52'612.5
2017-Jun-18 10:30N 45°58' W 124°45'612.6
2017-Jun-18 10:00N 46°02' W 124°38'612.7
2017-Jun-18 09:31N 46°05' W 124°30'612.6
2017-Jun-18 09:00N 46°09' W 124°23'612.1
2017-Jun-18 08:30N 46°12' W 124°15'4 9.0
2017-Jun-18 08:01N 46°12' W 124°09'510.4
2017-Jun-18 07:31N 46°16' W 124°03'612.4
2017-Jun-18 07:00N 46°12' W 123°56'5 9.8
2017-Jun-18 06:30N 46°12' W 123°49'612.1
2017-Jun-18 06:00N 46°15' W 123°41'612.5
2017-Jun-18 05:30N 46°16' W 123°32'510.1
2017-Jun-18 05:00N 46°14' W 123°25'510.4
2017-Jun-18 04:30N 46°09' W 123°22'612.0
2017-Jun-18 04:00N 46°10' W 123°14'611.5
2017-Jun-18 03:30N 46°10' W 123°06'612.6
2017-Jun-18 03:00N 46°07' W 122°58'510.9
2017-Jun-18 02:30N 46°02' W 122°53'611.5
2017-Jun-18 02:00N 45°58' W 122°49'713.1
2017-Jun-18 01:30N 45°51' W 122°47'612.4
2017-Jun-18 01:00N 45°45' W 122°46'611.3
2017-Jun-18 00:30N 45°39' W 122°46'1 2.1
2017-Jun-17 23:58N 45°38' W 122°47'0 0.0
2017-Jun-17 23:28N 45°38' W 122°47'0 0.0
2017-Jun-17 22:58N 45°38' W 122°47'0 0.0
2017-Jun-17 22:25N 45°38' W 122°47'0 0.0
2017-Jun-17 21:55N 45°38' W 122°47'0 0.0
2017-Jun-17 21:25N 45°38' W 122°47'0 0.0
2017-Jun-17 20:58N 45°38' W 122°47'0 0.0
2017-Jun-17 20:28N 45°38' W 122°47'0 0.0
2017-Jun-17 19:58N 45°38' W 122°47'0 0.0
2017-Jun-17 19:28N 45°38' W 122°47'0 0.0
2017-Jun-17 18:58N 45°38' W 122°47'0 0.0
2017-Jun-17 18:28N 45°38' W 122°47'0 0.0
2017-Jun-17 17:55N 45°38' W 122°47'0 0.0
2017-Jun-17 17:25N 45°38' W 122°47'0 0.0
2017-Jun-17 16:58N 45°38' W 122°47'0 0.0
2017-Jun-17 16:28N 45°38' W 122°47'0 0.0
2017-Jun-17 15:55N 45°38' W 122°47'0 0.0
2017-Jun-17 15:25N 45°38' W 122°47'0 0.0
2017-Jun-17 14:55N 45°38' W 122°47'0 0.0
2017-Jun-17 13:58N 45°38' W 122°47'0 0.0
2017-Jun-17 13:25N 45°38' W 122°47'0 0.0
2017-Jun-17 12:58N 45°38' W 122°47'0 0.0
2017-Jun-17 12:25N 45°38' W 122°47'0 0.0
2017-Jun-17 11:52N 45°38' W 122°47'0 0.0
2017-Jun-17 11:28N 45°38' W 122°47'0 0.0
2017-Jun-17 10:58N 45°38' W 122°47'0 0.0
2017-Jun-17 10:28N 45°38' W 122°47'0 0.0
2017-Jun-17 09:58N 45°38' W 122°47'0 0.0
2017-Jun-17 09:25N 45°38' W 122°47'0 0.0
2017-Jun-17 08:58N 45°38' W 122°47'0 0.0
2017-Jun-17 08:28N 45°38' W 122°47'0 0.0
2017-Jun-17 07:58N 45°38' W 122°47'0 0.0
2017-Jun-17 07:28N 45°38' W 122°47'0 0.0
2017-Jun-17 06:58N 45°38' W 122°47'0 0.0
2017-Jun-17 06:28N 45°38' W 122°47'0 0.0
2017-Jun-17 05:58N 45°38' W 122°47'0 0.0
2017-Jun-17 05:25N 45°38' W 122°47'0 0.0
2017-Jun-17 04:55N 45°38' W 122°47'0 0.0
2017-Jun-17 04:19N 45°38' W 122°47'0 0.0
2017-Jun-17 03:58N 45°38' W 122°47'0 0.0
2017-Jun-17 03:28N 45°38' W 122°47'0 0.0
2017-Jun-17 02:58N 45°38' W 122°47'0 0.0
2017-Jun-17 02:28N 45°38' W 122°47'0 0.0
2017-Jun-17 01:58N 45°38' W 122°47'0 0.0
2017-Jun-17 00:40N 45°38' W 122°47'0 0.0
2017-Jun-17 00:28N 45°38' W 122°47'0 0.0
2017-Jun-16 23:58N 45°38' W 122°47'0 0.0
2017-Jun-16 23:28N 45°38' W 122°47'0 0.0
2017-Jun-16 22:55N 45°38' W 122°47'0 0.0
2017-Jun-16 22:19N 45°38' W 122°47'0 0.0
2017-Jun-16 21:55N 45°38' W 122°47'0 0.0
2017-Jun-16 21:28N 45°38' W 122°47'0 0.0
2017-Jun-16 20:58N 45°38' W 122°47'0 0.0
2017-Jun-16 20:28N 45°38' W 122°47'0 0.0
2017-Jun-16 19:58N 45°38' W 122°47'0 0.0
2017-Jun-16 19:28N 45°38' W 122°47'0 0.0
2017-Jun-16 18:52N 45°38' W 122°47'0 0.0
2017-Jun-16 18:25N 45°38' W 122°47'0 0.0
2017-Jun-16 17:58N 45°38' W 122°47'0 0.0
2017-Jun-16 17:25N 45°38' W 122°47'0 0.0
2017-Jun-16 16:55N 45°38' W 122°47'0 0.0
2017-Jun-16 16:28N 45°38' W 122°47'0 0.0
2017-Jun-16 15:34N 45°38' W 122°47'0 0.0
2017-Jun-16 15:28N 45°38' W 122°47'0 0.0
2017-Jun-16 14:55N 45°38' W 122°47'0 0.0
2017-Jun-16 13:58N 45°38' W 122°47'0 0.0
2017-Jun-16 13:22N 45°38' W 122°47'0 0.0
2017-Jun-16 12:58N 45°38' W 122°47'0 0.0
2017-Jun-16 12:28N 45°38' W 122°47'0 0.0
2017-Jun-16 11:55N 45°38' W 122°47'0 0.0
2017-Jun-16 11:22N 45°38' W 122°47'0 0.0
2017-Jun-16 10:58N 45°38' W 122°47'0 0.0
2017-Jun-16 10:28N 45°38' W 122°47'0 0.0
2017-Jun-16 09:58N 45°38' W 122°47'0 0.0
2017-Jun-16 09:28N 45°38' W 122°47'0 0.0
2017-Jun-16 08:55N 45°38' W 122°47'0 0.0
2017-Jun-16 08:16N 45°38' W 122°47'0 0.0
2017-Jun-16 07:58N 45°38' W 122°47'0 0.0
2017-Jun-16 07:28N 45°38' W 122°47'0 0.0
2017-Jun-16 06:58N 45°38' W 122°47'0 0.0
2017-Jun-16 06:28N 45°38' W 122°47'0 0.0
2017-Jun-16 05:55N 45°38' W 122°47'0 0.0
2017-Jun-16 05:28N 45°38' W 122°47'0 0.0
2017-Jun-16 04:58N 45°38' W 122°47'0 0.0
2017-Jun-16 04:28N 45°38' W 122°47'0 0.0
2017-Jun-16 03:55N 45°38' W 122°47'0 0.0
2017-Jun-16 03:28N 45°38' W 122°47'0 0.0
2017-Jun-16 02:55N 45°38' W 122°47'0 0.0
2017-Jun-16 02:28N 45°38' W 122°47'0 0.0
2017-Jun-16 01:58N 45°38' W 122°47'0 0.0
2017-Jun-16 01:25N 45°38' W 122°47'0 0.0
2017-Jun-16 00:58N 45°38' W 122°47'0 0.0
2017-Jun-16 00:28N 45°38' W 122°47'0 0.0
2017-Jun-15 23:58N 45°38' W 122°47'0 0.0
2017-Jun-15 23:28N 45°38' W 122°47'0 0.0
2017-Jun-15 22:58N 45°38' W 122°47'0 0.0
2017-Jun-15 22:25N 45°38' W 122°47'0 0.0
2017-Jun-15 21:58N 45°38' W 122°47'0 0.0
2017-Jun-15 21:25N 45°38' W 122°47'0 0.0
2017-Jun-15 20:58N 45°38' W 122°47'0 0.0
2017-Jun-15 20:28N 45°38' W 122°47'0 0.0
2017-Jun-15 19:58N 45°38' W 122°47'0 0.0
2017-Jun-15 19:25N 45°38' W 122°47'0 0.0
2017-Jun-15 18:58N 45°38' W 122°47'0 0.0
2017-Jun-15 18:28N 45°38' W 122°47'0 0.0
2017-Jun-15 17:49N 45°38' W 122°47'0 0.0
2017-Jun-15 17:28N 45°38' W 122°47'0 0.0
2017-Jun-15 16:49N 45°38' W 122°47'0 0.0
2017-Jun-15 16:28N 45°38' W 122°47'0 0.0
2017-Jun-15 15:55N 45°38' W 122°47'0 0.0
2017-Jun-15 15:25N 45°38' W 122°47'0 0.0
2017-Jun-15 15:00N 45°38' W 122°47'2 3.2
2017-Jun-15 14:30N 45°40' W 122°46'9 9.3
2017-Jun-15 13:30N 45°49' W 122°48'4 8.9
2017-Jun-15 13:01N 45°53' W 122°48'5 9.1
2017-Jun-15 12:31N 45°58' W 122°49'5 9.2
2017-Jun-15 12:00N 46°02' W 122°53'4 8.4
2017-Jun-15 11:30N 46°06' W 122°56'4 8.6
2017-Jun-15 11:00N 46°08' W 123°01'5 9.4
2017-Jun-15 10:31N 46°11' W 123°06'4 8.9
2017-Jun-15 10:00N 46°10' W 123°13'5 9.4
2017-Jun-15 09:30N 46°09' W 123°19'4 9.0
2017-Jun-15 09:00N 46°10' W 123°25'5 9.3
2017-Jun-15 08:31N 46°15' W 123°26'4 8.9
2017-Jun-15 08:00N 46°16' W 123°33'5 9.6
2017-Jun-15 07:31N 46°15' W 123°39'510.9
2017-Jun-15 07:00N 46°13' W 123°46'1 1.7
2017-Jun-15 06:30N 46°12' W 123°47'0 0.0
2017-Jun-15 06:00N 46°12' W 123°47'0 0.0
2017-Jun-15 05:30N 46°12' W 123°47'0 0.0
2017-Jun-15 05:00N 46°12' W 123°47'0 0.0
2017-Jun-15 04:30N 46°12' W 123°47'0 0.1
2017-Jun-15 04:00N 46°12' W 123°47'0 0.0
2017-Jun-15 03:30N 46°12' W 123°47'0 0.2
2017-Jun-15 03:00N 46°12' W 123°47'4 7.8
2017-Jun-15 02:30N 46°11' W 123°53'5 9.8
2017-Jun-15 02:00N 46°14' W 123°59'5 9.8
2017-Jun-15 01:30N 46°15' W 124°06'611.4
2017-Jun-15 01:00N 46°11' W 124°13'510.0
2017-Jun-15 00:30N 46°12' W 124°20'1 1.5
2017-Jun-15 00:00N 46°12' W 124°21'1 2.9
2017-Jun-14 23:30N 46°13' W 124°22'3 5.8
2017-Jun-14 23:00N 46°15' W 124°26'2 4.8
2017-Jun-14 22:30N 46°17' W 124°28'2 3.2
2017-Jun-14 22:00N 46°17' W 124°30'2 3.5
2017-Jun-14 21:30N 46°19' W 124°31'2 3.8
2017-Jun-14 21:00N 46°21' W 124°32'2 4.3
2017-Jun-14 20:30N 46°23' W 124°34'3 6.2
2017-Jun-14 20:01N 46°26' W 124°35'4 7.5
2017-Jun-14 19:30N 46°29' W 124°38'611.3
2017-Jun-14 19:00N 46°34' W 124°40'612.3
2017-Jun-14 18:30N 46°40' W 124°44'612.2
2017-Jun-14 18:00N 46°46' W 124°47'612.0
2017-Jun-14 17:30N 46°51' W 124°51'612.3
2017-Jun-14 17:00N 46°57' W 124°54'612.2
2017-Jun-14 16:30N 47°03' W 124°57'612.3
2017-Jun-14 15:59N 47°08' W 125°01'5311.7
2017-Jun-14 11:28N 48°00' W 125°15'1012.3
2017-Jun-14 10:41N 48°10' W 125°09'312.4
2017-Jun-14 10:26N 48°12' W 125°08'511.8
2017-Jun-14 10:00N 48°18' W 125°07'612.2
2017-Jun-14 09:28N 48°24' W 125°10'612.1
2017-Jun-14 09:00N 48°28' W 125°04'711.4
2017-Jun-14 08:24N 48°31' W 124°55'512.9
2017-Jun-14 08:00N 48°31' W 124°47'612.8
2017-Jun-14 07:30N 48°29' W 124°38'612.9
2017-Jun-14 07:00N 48°26' W 124°29'612.9
2017-Jun-14 06:30N 48°24' W 124°20'612.7
2017-Jun-14 06:00N 48°21' W 124°11'612.5
2017-Jun-14 05:30N 48°19' W 124°03'612.4
2017-Jun-14 05:00N 48°17' W 123°54'612.0
2017-Jun-14 04:30N 48°16' W 123°45'611.2
2017-Jun-14 03:59N 48°15' W 123°36'510.2
2017-Jun-14 03:30N 48°14' W 123°29'510.3
2017-Jun-14 03:00N 48°10' W 123°24'3 5.6
2017-Jun-14 02:30N 48°08' W 123°27'0 0.2
2017-Jun-14 01:58N 48°08' W 123°27'0 0.0
2017-Jun-14 01:28N 48°08' W 123°27'0 0.1
2017-Jun-14 00:52N 48°08' W 123°27'0 0.0
2017-Jun-14 00:28N 48°08' W 123°27'0 0.0
2017-Jun-13 23:58N 48°08' W 123°27'0 0.0
2017-Jun-13 23:28N 48°08' W 123°27'0 0.0
2017-Jun-13 22:55N 48°08' W 123°27'0 0.0
2017-Jun-13 22:16N 48°08' W 123°27'0 0.0
2017-Jun-13 21:58N 48°08' W 123°27'0 0.0
2017-Jun-13 21:28N 48°08' W 123°27'0 0.0
2017-Jun-13 20:58N 48°08' W 123°27'0 0.0
2017-Jun-13 20:28N 48°08' W 123°27'0 0.1
2017-Jun-13 19:58N 48°08' W 123°27'0 0.0
2017-Jun-13 19:22N 48°08' W 123°27'0 0.1
2017-Jun-13 18:58N 48°08' W 123°27'0 0.1
2017-Jun-13 18:28N 48°08' W 123°27'0 0.0
2017-Jun-13 17:58N 48°08' W 123°27'0 0.0
2017-Jun-13 17:28N 48°08' W 123°27'0 0.0
2017-Jun-13 16:55N 48°08' W 123°27'0 0.0
2017-Jun-13 16:25N 48°08' W 123°27'0 1.2
2017-Jun-13 16:00N 48°08' W 123°26'2 4.1
2017-Jun-13 15:30N 48°08' W 123°23'3 5.7
2017-Jun-13 15:00N 48°10' W 123°26'1010.2
2017-Jun-13 14:00N 48°14' W 123°41'612.1
2017-Jun-13 13:29N 48°13' W 123°50'613.1
2017-Jun-13 13:00N 48°14' W 123°59'612.9
2017-Jun-13 12:30N 48°17' W 124°08'612.8
2017-Jun-13 12:00N 48°20' W 124°17'612.5
2017-Jun-13 11:30N 48°22' W 124°25'612.3
2017-Jun-13 11:00N 48°25' W 124°34'612.4
2017-Jun-13 10:30N 48°28' W 124°42'612.7
2017-Jun-13 10:00N 48°28' W 124°51'612.6
2017-Jun-13 09:30N 48°29' W 125°01'611.5
2017-Jun-13 09:00N 48°28' W 125°10'611.6
2017-Jun-13 08:30N 48°28' W 125°18'612.4
2017-Jun-13 08:00N 48°28' W 125°28'612.8
2017-Jun-13 07:30N 48°28' W 125°37'612.5
2017-Jun-13 07:00N 48°28' W 125°47'612.7
2017-Jun-13 06:30N 48°28' W 125°56'613.2
2017-Jun-13 06:00N 48°28' W 126°06'613.0
2017-Jun-13 05:30N 48°28' W 126°16'713.0
2017-Jun-13 04:59N 48°28' W 126°26'  
Track history (hours):
 
Tides and Currents Weather Stations Pressure Air Temp Water Temp Dewpoint Dewpoint Depression Visibility Wind Speed Wind Dir Waves Ship Positions

UCT Elwood

Last reported at 2017-Jun-22 18:29 UTC. Time now 2017-Jun-23 05:16 UTC.
Position N 26°46' W 121°02'.

Type: Ship (hazmat cat B). MMSI: 538002324.

Date/timePositionNaut miles runAvg speedWind from/ knotsBaromVisibWave heightAir tempDewpointWater temp
2017-Jun-22 18:29N 26°46' W 121°02'2813.2
2017-Jun-22 16:22N 27°10' W 121°17'613.4
2017-Jun-22 15:55N 27°15' W 121°20'1813.3
2017-Jun-22 14:34N 27°31' W 121°30'113.5
2017-Jun-22 14:29N 27°32' W 121°30'1413.1
2017-Jun-22 13:23N 27°45' W 121°38'513.1
2017-Jun-22 13:00N 27°49' W 121°41'613.0
2017-Jun-22 12:30N 27°55' W 121°45'612.9
2017-Jun-22 12:01N 28°00' W 121°48'713.2
2017-Jun-22 11:31N 28°06' W 121°52'713.2
2017-Jun-22 11:00N 28°12' W 121°56'713.2
2017-Jun-22 10:29N 28°18' W 121°59'613.1
2017-Jun-22 10:00N 28°24' W 122°03'713.1
2017-Jun-22 09:30N 28°29' W 122°06'713.1
2017-Jun-22 08:59N 28°35' W 122°10'613.0
2017-Jun-22 08:30N 28°41' W 122°13'712.9
2017-Jun-22 07:59N 28°47' W 122°17'713.0
2017-Jun-22 07:29N 28°53' W 122°20'613.1
2017-Jun-22 07:00N 28°58' W 122°24'612.9
2017-Jun-22 06:31N 29°04' W 122°27'713.2
2017-Jun-22 05:57N 29°10' W 122°31'613.2
2017-Jun-22 05:30N 29°15' W 122°35'613.2
2017-Jun-22 05:00N 29°21' W 122°38'713.1
2017-Jun-22 04:26N 29°28' W 122°42'613.0
2017-Jun-22 04:00N 29°32' W 122°45'1012.9
2017-Jun-22 03:13N 29°41' W 122°51'812.9
2017-Jun-22 02:36N 29°48' W 122°55'112.6
2017-Jun-22 02:30N 29°49' W 122°56'712.9
2017-Jun-22 02:00N 29°55' W 122°59'712.9
2017-Jun-22 01:30N 30°01' W 123°03'713.0
2017-Jun-22 00:55N 30°07' W 123°07'513.1
2017-Jun-22 00:30N 30°12' W 123°10'613.1
2017-Jun-22 00:01N 30°18' W 123°14'713.0
2017-Jun-21 23:30N 30°24' W 123°17'613.1
2017-Jun-21 23:00N 30°29' W 123°21'613.1
2017-Jun-21 22:31N 30°35' W 123°24'612.9
2017-Jun-21 22:00N 30°41' W 123°28'713.0
2017-Jun-21 21:30N 30°46' W 123°32'612.9
2017-Jun-21 21:00N 30°52' W 123°35'713.0
2017-Jun-21 20:30N 30°58' W 123°39'612.9
2017-Jun-21 20:00N 31°03' W 123°43'713.0
2017-Jun-21 19:28N 31°10' W 123°47'613.0
2017-Jun-21 19:00N 31°15' W 123°50'612.9
2017-Jun-21 18:30N 31°21' W 123°53'712.8
2017-Jun-21 18:00N 31°26' W 123°57'612.9
2017-Jun-21 17:30N 31°32' W 124°01'613.0
2017-Jun-21 17:00N 31°38' W 124°04'4613.0
2017-Jun-21 13:28N 32°18' W 124°31'712.8
2017-Jun-21 12:55N 32°24' W 124°35'512.8
2017-Jun-21 12:30N 32°28' W 124°38'613.0
2017-Jun-21 12:00N 32°34' W 124°42'713.0
2017-Jun-21 11:26N 32°41' W 124°45'613.0
2017-Jun-21 11:00N 32°46' W 124°48'713.2
2017-Jun-21 10:28N 32°52' W 124°52'613.2
2017-Jun-21 10:00N 32°57' W 124°56'712.9
2017-Jun-21 09:30N 33°03' W 124°60'712.8
2017-Jun-21 08:58N 33°09' W 125°03'612.8
2017-Jun-21 08:29N 33°15' W 125°07'712.9
2017-Jun-21 07:57N 33°21' W 125°11'613.0
2017-Jun-21 07:30N 33°26' W 125°14'713.1
2017-Jun-21 07:00N 33°31' W 125°18'713.2
2017-Jun-21 06:30N 33°37' W 125°22'912.9
2017-Jun-21 05:46N 33°46' W 125°27'312.9
2017-Jun-21 05:30N 33°49' W 125°29'1612.7
2017-Jun-21 04:15N 34°03' W 125°39'2612.7
2017-Jun-21 02:13N 34°25' W 125°53'412.7
2017-Jun-21 01:55N 34°29' W 125°56'512.8
2017-Jun-21 01:30N 34°33' W 125°59'612.7
2017-Jun-21 01:00N 34°39' W 126°03'612.7
2017-Jun-21 00:30N 34°44' W 126°06'612.7
2017-Jun-21 00:00N 34°50' W 126°10'612.7
2017-Jun-20 23:30N 34°55' W 126°14'713.0
2017-Jun-20 23:00N 35°01' W 126°18'16713.2
2017-Jun-20 10:25N 37°28' W 127°56'42311.8
2017-Jun-18 22:32N 44°31' W 127°43'013.6
2017-Jun-18 22:30N 44°31' W 127°42'812.7
2017-Jun-18 21:52N 44°36' W 127°33'1012.8
2017-Jun-18 21:07N 44°41' W 127°22'113.2
2017-Jun-18 21:00N 44°42' W 127°20'1012.8
2017-Jun-18 20:11N 44°48' W 127°08'312.9
2017-Jun-18 20:00N 44°49' W 127°05'612.8
2017-Jun-18 19:30N 44°53' W 126°58'712.8
2017-Jun-18 18:59N 44°57' W 126°50'812.8
2017-Jun-18 18:23N 45°01' W 126°41'512.7
2017-Jun-18 17:59N 45°04' W 126°36'612.8
2017-Jun-18 17:30N 45°08' W 126°28'1112.9
2017-Jun-18 16:38N 45°14' W 126°15'212.9
2017-Jun-18 16:28N 45°15' W 126°13'712.6
2017-Jun-18 15:54N 45°19' W 126°04'512.5
2017-Jun-18 15:30N 45°22' W 125°58'912.7
2017-Jun-18 14:46N 45°28' W 125°48'1112.6
2017-Jun-18 13:52N 45°34' W 125°35'512.5
2017-Jun-18 13:30N 45°37' W 125°29'612.6
2017-Jun-18 13:00N 45°40' W 125°22'612.4
2017-Jun-18 12:30N 45°44' W 125°14'612.5
2017-Jun-18 12:00N 45°47' W 125°07'612.6
2017-Jun-18 11:30N 45°51' W 124°60'612.5
2017-Jun-18 11:01N 45°54' W 124°52'612.5
2017-Jun-18 10:30N 45°58' W 124°45'612.6
2017-Jun-18 10:00N 46°02' W 124°38'612.7
2017-Jun-18 09:31N 46°05' W 124°30'612.6
2017-Jun-18 09:00N 46°09' W 124°23'612.1
2017-Jun-18 08:30N 46°12' W 124°15'4 9.0
2017-Jun-18 08:01N 46°12' W 124°09'510.4
2017-Jun-18 07:31N 46°16' W 124°03'612.4
2017-Jun-18 07:00N 46°12' W 123°56'5 9.8
2017-Jun-18 06:30N 46°12' W 123°49'612.1
2017-Jun-18 06:00N 46°15' W 123°41'612.5
2017-Jun-18 05:30N 46°16' W 123°32'510.1
2017-Jun-18 05:00N 46°14' W 123°25'510.4
2017-Jun-18 04:30N 46°09' W 123°22'612.0
2017-Jun-18 04:00N 46°10' W 123°14'611.5
2017-Jun-18 03:30N 46°10' W 123°06'612.6
2017-Jun-18 03:00N 46°07' W 122°58'510.9
2017-Jun-18 02:30N 46°02' W 122°53'611.5
2017-Jun-18 02:00N 45°58' W 122°49'713.1
2017-Jun-18 01:30N 45°51' W 122°47'612.4
2017-Jun-18 01:00N 45°45' W 122°46'611.3
2017-Jun-18 00:30N 45°39' W 122°46'1 2.1
2017-Jun-17 23:58N 45°38' W 122°47'0 0.0
2017-Jun-17 23:28N 45°38' W 122°47'0 0.0
2017-Jun-17 22:58N 45°38' W 122°47'0 0.0
2017-Jun-17 22:25N 45°38' W 122°47'0 0.0
2017-Jun-17 21:55N 45°38' W 122°47'0 0.0
2017-Jun-17 21:25N 45°38' W 122°47'0 0.0
2017-Jun-17 20:58N 45°38' W 122°47'0 0.0
2017-Jun-17 20:28N 45°38' W 122°47'0 0.0
2017-Jun-17 19:58N 45°38' W 122°47'0 0.0
2017-Jun-17 19:28N 45°38' W 122°47'0 0.0
2017-Jun-17 18:58N 45°38' W 122°47'0 0.0
2017-Jun-17 18:28N 45°38' W 122°47'0 0.0
2017-Jun-17 17:55N 45°38' W 122°47'0 0.0
2017-Jun-17 17:25N 45°38' W 122°47'0 0.0
2017-Jun-17 16:58N 45°38' W 122°47'0 0.0
2017-Jun-17 16:28N 45°38' W 122°47'0 0.0
2017-Jun-17 15:55N 45°38' W 122°47'0 0.0
2017-Jun-17 15:25N 45°38' W 122°47'0 0.0
2017-Jun-17 14:55N 45°38' W 122°47'0 0.0
2017-Jun-17 13:58N 45°38' W 122°47'0 0.0
2017-Jun-17 13:25N 45°38' W 122°47'0 0.0
2017-Jun-17 12:58N 45°38' W 122°47'0 0.0
2017-Jun-17 12:25N 45°38' W 122°47'0 0.0
2017-Jun-17 11:52N 45°38' W 122°47'0 0.0
2017-Jun-17 11:28N 45°38' W 122°47'0 0.0
2017-Jun-17 10:58N 45°38' W 122°47'0 0.0
2017-Jun-17 10:28N 45°38' W 122°47'0 0.0
2017-Jun-17 09:58N 45°38' W 122°47'0 0.0
2017-Jun-17 09:25N 45°38' W 122°47'0 0.0
2017-Jun-17 08:58N 45°38' W 122°47'0 0.0
2017-Jun-17 08:28N 45°38' W 122°47'0 0.0
2017-Jun-17 07:58N 45°38' W 122°47'0 0.0
2017-Jun-17 07:28N 45°38' W 122°47'0 0.0
2017-Jun-17 06:58N 45°38' W 122°47'0 0.0
2017-Jun-17 06:28N 45°38' W 122°47'0 0.0
2017-Jun-17 05:58N 45°38' W 122°47'0 0.0
2017-Jun-17 05:25N 45°38' W 122°47'0 0.0
2017-Jun-17 04:55N 45°38' W 122°47'0 0.0
2017-Jun-17 04:19N 45°38' W 122°47'0 0.0
2017-Jun-17 03:58N 45°38' W 122°47'0 0.0
2017-Jun-17 03:28N 45°38' W 122°47'0 0.0
2017-Jun-17 02:58N 45°38' W 122°47'0 0.0
2017-Jun-17 02:28N 45°38' W 122°47'0 0.0
2017-Jun-17 01:58N 45°38' W 122°47'0 0.0
2017-Jun-17 00:40N 45°38' W 122°47'0 0.0
2017-Jun-17 00:28N 45°38' W 122°47'0 0.0
2017-Jun-16 23:58N 45°38' W 122°47'0 0.0
2017-Jun-16 23:28N 45°38' W 122°47'0 0.0
2017-Jun-16 22:55N 45°38' W 122°47'0 0.0
2017-Jun-16 22:19N 45°38' W 122°47'0 0.0
2017-Jun-16 21:55N 45°38' W 122°47'0 0.0
2017-Jun-16 21:28N 45°38' W 122°47'0 0.0
2017-Jun-16 20:58N 45°38' W 122°47'0 0.0
2017-Jun-16 20:28N 45°38' W 122°47'0 0.0
2017-Jun-16 19:58N 45°38' W 122°47'0 0.0
2017-Jun-16 19:28N 45°38' W 122°47'0 0.0
2017-Jun-16 18:52N 45°38' W 122°47'0 0.0
2017-Jun-16 18:25N 45°38' W 122°47'0 0.0
2017-Jun-16 17:58N 45°38' W 122°47'0 0.0
2017-Jun-16 17:25N 45°38' W 122°47'0 0.0
2017-Jun-16 16:55N 45°38' W 122°47'0 0.0
2017-Jun-16 16:28N 45°38' W 122°47'0 0.0
2017-Jun-16 15:34N 45°38' W 122°47'0 0.0
2017-Jun-16 15:28N 45°38' W 122°47'0 0.0
2017-Jun-16 14:55N 45°38' W 122°47'0 0.0
2017-Jun-16 13:58N 45°38' W 122°47'0 0.0
2017-Jun-16 13:22N 45°38' W 122°47'0 0.0
2017-Jun-16 12:58N 45°38' W 122°47'0 0.0
2017-Jun-16 12:28N 45°38' W 122°47'0 0.0
2017-Jun-16 11:55N 45°38' W 122°47'0 0.0
2017-Jun-16 11:22N 45°38' W 122°47'0 0.0
2017-Jun-16 10:58N 45°38' W 122°47'0 0.0
2017-Jun-16 10:28N 45°38' W 122°47'0 0.0
2017-Jun-16 09:58N 45°38' W 122°47'0 0.0
2017-Jun-16 09:28N 45°38' W 122°47'0 0.0
2017-Jun-16 08:55N 45°38' W 122°47'0 0.0
2017-Jun-16 08:16N 45°38' W 122°47'0 0.0
2017-Jun-16 07:58N 45°38' W 122°47'0 0.0
2017-Jun-16 07:28N 45°38' W 122°47'0 0.0
2017-Jun-16 06:58N 45°38' W 122°47'0 0.0
2017-Jun-16 06:28N 45°38' W 122°47'0 0.0
2017-Jun-16 05:55N 45°38' W 122°47'0 0.0
2017-Jun-16 05:28N 45°38' W 122°47'0 0.0
2017-Jun-16 04:58N 45°38' W 122°47'0 0.0
2017-Jun-16 04:28N 45°38' W 122°47'0 0.0
2017-Jun-16 03:55N 45°38' W 122°47'0 0.0
2017-Jun-16 03:28N 45°38' W 122°47'0 0.0
2017-Jun-16 02:55N 45°38' W 122°47'0 0.0
2017-Jun-16 02:28N 45°38' W 122°47'0 0.0
2017-Jun-16 01:58N 45°38' W 122°47'0 0.0
2017-Jun-16 01:25N 45°38' W 122°47'0 0.0
2017-Jun-16 00:58N 45°38' W 122°47'0 0.0
2017-Jun-16 00:28N 45°38' W 122°47'0 0.0
2017-Jun-15 23:58N 45°38' W 122°47'0 0.0
2017-Jun-15 23:28N 45°38' W 122°47'0 0.0
2017-Jun-15 22:58N 45°38' W 122°47'0 0.0
2017-Jun-15 22:25N 45°38' W 122°47'0 0.0
2017-Jun-15 21:58N 45°38' W 122°47'0 0.0
2017-Jun-15 21:25N 45°38' W 122°47'0 0.0
2017-Jun-15 20:58N 45°38' W 122°47'0 0.0
2017-Jun-15 20:28N 45°38' W 122°47'0 0.0
2017-Jun-15 19:58N 45°38' W 122°47'0 0.0
2017-Jun-15 19:25N 45°38' W 122°47'0 0.0
2017-Jun-15 18:58N 45°38' W 122°47'0 0.0
2017-Jun-15 18:28N 45°38' W 122°47'0 0.0
2017-Jun-15 17:49N 45°38' W 122°47'0 0.0
2017-Jun-15 17:28N 45°38' W 122°47'0 0.0
2017-Jun-15 16:49N 45°38' W 122°47'0 0.0
2017-Jun-15 16:28N 45°38' W 122°47'0 0.0
2017-Jun-15 15:55N 45°38' W 122°47'0 0.0
2017-Jun-15 15:25N 45°38' W 122°47'0 0.0
2017-Jun-15 15:00N 45°38' W 122°47'2 3.2
2017-Jun-15 14:30N 45°40' W 122°46'9 9.3
2017-Jun-15 13:30N 45°49' W 122°48'4 8.9
2017-Jun-15 13:01N 45°53' W 122°48'5 9.1
2017-Jun-15 12:31N 45°58' W 122°49'5 9.2
2017-Jun-15 12:00N 46°02' W 122°53'4 8.4
2017-Jun-15 11:30N 46°06' W 122°56'4 8.6
2017-Jun-15 11:00N 46°08' W 123°01'5 9.4
2017-Jun-15 10:31N 46°11' W 123°06'4 8.9
2017-Jun-15 10:00N 46°10' W 123°13'5 9.4
2017-Jun-15 09:30N 46°09' W 123°19'4 9.0
2017-Jun-15 09:00N 46°10' W 123°25'5 9.3
2017-Jun-15 08:31N 46°15' W 123°26'4 8.9
2017-Jun-15 08:00N 46°16' W 123°33'5 9.6
2017-Jun-15 07:31N 46°15' W 123°39'510.9
2017-Jun-15 07:00N 46°13' W 123°46'1 1.7
2017-Jun-15 06:30N 46°12' W 123°47'0 0.0
2017-Jun-15 06:00N 46°12' W 123°47'0 0.0
2017-Jun-15 05:30N 46°12' W 123°47'0 0.0
2017-Jun-15 05:00N 46°12' W 123°47'0 0.0
2017-Jun-15 04:30N 46°12' W 123°47'0 0.1
2017-Jun-15 04:00N 46°12' W 123°47'0 0.0
2017-Jun-15 03:30N 46°12' W 123°47'0 0.2
2017-Jun-15 03:00N 46°12' W 123°47'4 7.8
2017-Jun-15 02:30N 46°11' W 123°53'5 9.8
2017-Jun-15 02:00N 46°14' W 123°59'5 9.8
2017-Jun-15 01:30N 46°15' W 124°06'611.4
2017-Jun-15 01:00N 46°11' W 124°13'510.0
2017-Jun-15 00:30N 46°12' W 124°20'1 1.5
2017-Jun-15 00:00N 46°12' W 124°21'1 2.9
2017-Jun-14 23:30N 46°13' W 124°22'3 5.8
2017-Jun-14 23:00N 46°15' W 124°26'2 4.8
2017-Jun-14 22:30N 46°17' W 124°28'2 3.2
2017-Jun-14 22:00N 46°17' W 124°30'2 3.5
2017-Jun-14 21:30N 46°19' W 124°31'2 3.8
2017-Jun-14 21:00N 46°21' W 124°32'2 4.3
2017-Jun-14 20:30N 46°23' W 124°34'3 6.2
2017-Jun-14 20:01N 46°26' W 124°35'4 7.5
2017-Jun-14 19:30N 46°29' W 124°38'611.3
2017-Jun-14 19:00N 46°34' W 124°40'612.3
2017-Jun-14 18:30N 46°40' W 124°44'612.2
2017-Jun-14 18:00N 46°46' W 124°47'612.0
2017-Jun-14 17:30N 46°51' W 124°51'612.3
2017-Jun-14 17:00N 46°57' W 124°54'612.2
2017-Jun-14 16:30N 47°03' W 124°57'612.3
2017-Jun-14 15:59N 47°08' W 125°01'5311.7
2017-Jun-14 11:28N 48°00' W 125°15'1012.3
2017-Jun-14 10:41N 48°10' W 125°09'312.4
2017-Jun-14 10:26N 48°12' W 125°08'511.8
2017-Jun-14 10:00N 48°18' W 125°07'612.2
2017-Jun-14 09:28N 48°24' W 125°10'612.1
2017-Jun-14 09:00N 48°28' W 125°04'711.4
2017-Jun-14 08:24N 48°31' W 124°55'512.9
2017-Jun-14 08:00N 48°31' W 124°47'612.8
2017-Jun-14 07:30N 48°29' W 124°38'612.9
2017-Jun-14 07:00N 48°26' W 124°29'612.9
2017-Jun-14 06:30N 48°24' W 124°20'612.7
2017-Jun-14 06:00N 48°21' W 124°11'612.5
2017-Jun-14 05:30N 48°19' W 124°03'612.4
2017-Jun-14 05:00N 48°17' W 123°54'612.0
2017-Jun-14 04:30N 48°16' W 123°45'611.2
2017-Jun-14 03:59N 48°15' W 123°36'510.2
2017-Jun-14 03:30N 48°14' W 123°29'510.3
2017-Jun-14 03:00N 48°10' W 123°24'3 5.6
2017-Jun-14 02:30N 48°08' W 123°27'0 0.2
2017-Jun-14 01:58N 48°08' W 123°27'0 0.0
2017-Jun-14 01:28N 48°08' W 123°27'0 0.1
2017-Jun-14 00:52N 48°08' W 123°27'0 0.0
2017-Jun-14 00:28N 48°08' W 123°27'0 0.0
2017-Jun-13 23:58N 48°08' W 123°27'0 0.0
2017-Jun-13 23:28N 48°08' W 123°27'0 0.0
2017-Jun-13 22:55N 48°08' W 123°27'0 0.0
2017-Jun-13 22:16N 48°08' W 123°27'0 0.0
2017-Jun-13 21:58N 48°08' W 123°27'0 0.0
2017-Jun-13 21:28N 48°08' W 123°27'0 0.0
2017-Jun-13 20:58N 48°08' W 123°27'0 0.0
2017-Jun-13 20:28N 48°08' W 123°27'0 0.1
2017-Jun-13 19:58N 48°08' W 123°27'0 0.0
2017-Jun-13 19:22N 48°08' W 123°27'0 0.1
2017-Jun-13 18:58N 48°08' W 123°27'0 0.1
2017-Jun-13 18:28N 48°08' W 123°27'0 0.0
2017-Jun-13 17:58N 48°08' W 123°27'0 0.0
2017-Jun-13 17:28N 48°08' W 123°27'0 0.0
2017-Jun-13 16:55N 48°08' W 123°27'0 0.0
2017-Jun-13 16:25N 48°08' W 123°27'0 1.2
2017-Jun-13 16:00N 48°08' W 123°26'2 4.1
2017-Jun-13 15:30N 48°08' W 123°23'3 5.7
2017-Jun-13 15:00N 48°10' W 123°26'1010.2
2017-Jun-13 14:00N 48°14' W 123°41'612.1
2017-Jun-13 13:29N 48°13' W 123°50'613.1
2017-Jun-13 13:00N 48°14' W 123°59'612.9
2017-Jun-13 12:30N 48°17' W 124°08'612.8
2017-Jun-13 12:00N 48°20' W 124°17'612.5
2017-Jun-13 11:30N 48°22' W 124°25'612.3
2017-Jun-13 11:00N 48°25' W 124°34'612.4
2017-Jun-13 10:30N 48°28' W 124°42'612.7
2017-Jun-13 10:00N 48°28' W 124°51'612.6
2017-Jun-13 09:30N 48°29' W 125°01'611.5
2017-Jun-13 09:00N 48°28' W 125°10'611.6
2017-Jun-13 08:30N 48°28' W 125°18'612.4
2017-Jun-13 08:00N 48°28' W 125°28'612.8
2017-Jun-13 07:30N 48°28' W 125°37'612.5
2017-Jun-13 07:00N 48°28' W 125°47'612.7
2017-Jun-13 06:30N 48°28' W 125°56'613.2
2017-Jun-13 06:00N 48°28' W 126°06'613.0
2017-Jun-13 05:30N 48°28' W 126°16'713.0
2017-Jun-13 04:59N 48°28' W 126°26'  

Dump ship's entire track history